Time;durP1;ratioP1;P1;durP2;ratioP2;P2;SDS_P1;SDS_P2;PMS_P1;PMS_P2;Temp;Humidity;BMP_temperature;BMP_pressure;BME280_temperature;BME280_humidity;BME280_pressure;Samples;Min_cycle;Max_cycle;Signal;HPM_P1;HPM_P2
2023/04/21 00:02:16;;;;;;;15.02;3.85;;;20.80;75.60;;;;;;4952576;28;20509;-75
2023/04/21 00:04:44;;;;;;;14.02;3.90;;;20.70;75.50;;;;;;4952496;29;20042;-75
2023/04/21 00:07:10;;;;;;;8.88;3.35;;;20.80;75.60;;;;;;4951903;28;20027;-75
2023/04/21 00:09:36;;;;;;;7.95;3.08;;;20.70;75.60;;;;;;4951763;28;20023;-75
2023/04/21 00:12:01;;;;;;;8.10;3.42;;;20.70;75.60;;;;;;4952469;29;20174;-75
2023/04/21 00:14:27;;;;;;;7.57;3.13;;;20.70;75.60;;;;;;4951302;29;20177;-75
2023/04/21 00:16:52;;;;;;;10.57;4.25;;;20.70;75.60;;;;;;4952418;29;20063;-75
2023/04/21 00:19:18;;;;;;;12.65;3.42;;;20.70;75.60;;;;;;4948329;28;20460;-76
2023/04/21 00:21:44;;;;;;;11.77;4.03;;;20.60;75.50;;;;;;4950107;29;20425;-75
2023/04/21 00:24:10;;;;;;;12.65;3.67;;;20.70;75.50;;;;;;4949154;28;20054;-75
2023/04/21 00:26:36;;;;;;;9.73;3.15;;;20.60;75.50;;;;;;4947378;29;20038;-75
2023/04/21 00:29:01;;;;;;;8.18;3.63;;;20.70;75.50;;;;;;4951270;28;20051;-75
2023/04/21 00:31:27;;;;;;;10.82;3.30;;;20.70;75.60;;;;;;4948822;29;20636;-74
2023/04/21 00:33:53;;;;;;;8.73;3.45;;;20.70;75.60;;;;;;4949081;28;20038;-76
2023/04/21 00:36:18;;;;;;;9.93;3.67;;;20.70;75.60;;;;;;4945342;29;20027;-75
2023/04/21 00:38:44;;;;;;;8.07;3.50;;;20.60;75.50;;;;;;4948139;28;20508;-75
2023/04/21 00:41:09;;;;;;;9.05;3.40;;;20.60;75.50;;;;;;4945240;28;20118;-74
2023/04/21 00:43:35;;;;;;;7.70;2.92;;;20.60;75.60;;;;;;4947550;29;20043;-75
2023/04/21 00:46:01;;;;;;;7.70;2.97;;;20.60;75.50;;;;;;4951274;29;20158;-76
2023/04/21 00:48:26;;;;;;;8.85;3.38;;;20.60;75.50;;;;;;4944491;28;20140;-75
2023/04/21 00:50:52;;;;;;;11.57;3.63;;;20.60;75.50;;;;;;4946346;29;20031;-76
2023/04/21 00:53:18;;;;;;;7.65;3.28;;;20.60;75.50;;;;;;4948886;29;20347;-75
2023/04/21 00:55:45;;;;;;;6.35;2.83;;;20.60;75.50;;;;;;4945798;29;20042;-76
2023/04/21 00:58:10;;;;;;;8.73;3.35;;;20.60;75.50;;;;;;4951825;29;20035;-76
2023/04/21 01:00:37;;;;;;;8.05;3.33;;;20.60;75.60;;;;;;4951709;29;20043;-75
2023/04/21 01:03:05;;;;;;;15.07;3.28;;;20.60;75.50;;;;;;4951951;29;20030;-75
2023/04/21 01:05:31;;;;;;;11.82;3.47;;;20.60;75.50;;;;;;4947153;28;20027;-75
2023/04/21 01:07:56;;;;;;;12.70;3.33;;;20.60;75.50;;;;;;4942299;29;20028;-75
2023/04/21 01:10:22;;;;;;;7.75;2.97;;;20.60;75.60;;;;;;4951884;29;20449;-75
2023/04/21 01:12:48;;;;;;;7.82;3.50;;;20.50;75.50;;;;;;4945534;29;20441;-76
2023/04/21 01:15:16;;;;;;;7.30;2.88;;;20.50;75.50;;;;;;4943749;29;20023;-76
2023/04/21 01:17:42;;;;;;;8.35;2.78;;;20.50;75.50;;;;;;4942049;29;20038;-76
2023/04/21 01:20:10;;;;;;;8.18;3.55;;;20.50;75.50;;;;;;4945208;29;20035;-76
2023/04/21 01:22:41;;;;;;;7.88;3.22;;;20.50;75.50;;;;;;4942622;28;20031;-75
2023/04/21 01:25:07;;;;;;;8.70;3.50;;;20.50;75.50;;;;;;4945193;29;20457;-76
2023/04/21 01:27:33;;;;;;;8.02;2.60;;;20.50;75.50;;;;;;4941438;29;20027;-75
2023/04/21 01:29:59;;;;;;;8.57;3.33;;;20.50;75.50;;;;;;4945528;29;20079;-76
2023/04/21 01:32:27;;;;;;;8.48;3.00;;;20.50;75.60;;;;;;4942706;29;20023;-76
2023/04/21 01:34:54;;;;;;;10.45;2.72;;;20.40;75.50;;;;;;4943997;29;20102;-76
2023/04/21 01:37:24;;;;;;;7.13;2.78;;;20.50;75.60;;;;;;4943987;28;20059;-75
2023/04/21 01:39:53;;;;;;;6.30;2.55;;;20.40;75.50;;;;;;4947354;28;20106;-75
2023/04/21 01:42:20;;;;;;;7.93;2.85;;;20.50;75.70;;;;;;4945070;28;20437;-75
2023/04/21 01:44:45;;;;;;;5.38;2.53;;;20.40;75.50;;;;;;4949478;29;20512;-74
2023/04/21 01:47:12;;;;;;;4.90;2.47;;;20.40;75.60;;;;;;4938893;28;20027;-75
2023/04/21 01:49:38;;;;;;;6.18;2.75;;;20.40;75.50;;;;;;4942547;29;20039;-74
2023/04/21 01:52:03;;;;;;;5.70;2.60;;;20.40;75.50;;;;;;4937431;29;20020;-75
2023/04/21 01:54:29;;;;;;;7.95;3.17;;;20.40;75.50;;;;;;4942010;29;20024;-75
2023/04/21 01:56:55;;;;;;;7.32;2.80;;;20.40;75.50;;;;;;4944802;29;20019;-75
2023/04/21 01:59:21;;;;;;;6.05;2.67;;;20.40;75.50;;;;;;4943649;28;20154;-75
2023/04/21 02:01:46;;;;;;;6.95;3.05;;;20.40;75.60;;;;;;4945224;29;20082;-75
2023/04/21 02:04:12;;;;;;;7.30;2.85;;;20.40;75.60;;;;;;4944838;29;20043;-76
2023/04/21 02:06:37;;;;;;;7.65;3.00;;;20.40;75.60;;;;;;4947637;28;20031;-75
2023/04/21 02:09:03;;;;;;;6.78;2.90;;;20.40;75.60;;;;;;4949238;28;20033;-76
2023/04/21 02:11:28;;;;;;;4.20;2.40;;;20.40;75.60;;;;;;4950706;29;20066;-76
2023/04/21 02:13:54;;;;;;;3.53;2.25;;;20.30;75.70;;;;;;4948743;29;20544;-76
2023/04/21 02:16:20;;;;;;;7.90;2.92;;;20.40;75.60;;;;;;4951216;29;20404;-75
2023/04/21 02:18:47;;;;;;;6.30;2.38;;;20.40;75.70;;;;;;4951716;28;20031;-75
2023/04/21 02:21:13;;;;;;;11.75;2.83;;;20.30;75.70;;;;;;4950580;29;20027;-76
2023/04/21 02:23:38;;;;;;;5.88;2.78;;;20.30;75.70;;;;;;4944579;29;20662;-76
2023/04/21 02:26:04;;;;;;;5.72;2.50;;;20.30;75.70;;;;;;4951576;29;20038;-75
2023/04/21 02:28:30;;;;;;;5.80;2.67;;;20.30;75.70;;;;;;4951325;28;20031;-76
2023/04/21 02:30:56;;;;;;;4.47;2.28;;;20.30;75.70;;;;;;4951484;28;20041;-76
2023/04/21 02:33:21;;;;;;;7.53;2.65;;;20.30;75.70;;;;;;4951386;29;20031;-75
2023/04/21 02:35:47;;;;;;;5.82;2.60;;;20.30;75.70;;;;;;4973093;28;20110;-75
2023/04/21 02:38:12;;;;;;;4.90;2.88;;;20.30;75.70;;;;;;4947816;28;20023;-76
2023/04/21 02:40:38;;;;;;;4.85;2.60;;;20.30;75.70;;;;;;4946625;29;20429;-76
2023/04/21 02:43:03;;;;;;;5.47;2.38;;;20.30;75.60;;;;;;4942300;29;20023;-77
2023/04/21 02:45:29;;;;;;;7.75;2.90;;;20.30;75.70;;;;;;4946602;29;20038;-76
2023/04/21 02:47:55;;;;;;;7.13;2.78;;;20.30;75.70;;;;;;4945376;29;20023;-77
2023/04/21 02:50:20;;;;;;;5.93;2.58;;;20.30;75.70;;;;;;4946872;29;20078;-76
2023/04/21 02:52:46;;;;;;;5.47;2.58;;;20.30;75.80;;;;;;4947262;29;20027;-75
2023/04/21 02:55:11;;;;;;;5.57;1.88;;;20.20;75.60;;;;;;4947610;29;20042;-75
2023/04/21 02:57:37;;;;;;;5.85;2.83;;;20.20;75.80;;;;;;4948047;29;20032;-76
2023/04/21 03:00:03;;;;;;;5.78;2.55;;;20.20;75.60;;;;;;4948505;29;20058;-76
2023/04/21 03:02:30;;;;;;;3.90;2.20;;;20.20;75.80;;;;;;4946177;28;20034;-74
2023/04/21 03:04:55;;;;;;;6.70;2.40;;;20.20;75.60;;;;;;4952252;28;20028;-76
2023/04/21 03:07:21;;;;;;;5.00;2.38;;;20.20;75.70;;;;;;4952481;29;20082;-74
2023/04/21 03:09:46;;;;;;;4.75;2.42;;;20.20;75.70;;;;;;4943110;29;20535;-75
2023/04/21 03:12:12;;;;;;;5.88;2.30;;;20.20;75.70;;;;;;4945526;29;20028;-75
2023/04/21 03:14:37;;;;;;;5.28;2.08;;;20.20;75.70;;;;;;4947543;29;20022;-75
2023/04/21 03:17:03;;;;;;;5.55;2.00;;;20.20;75.70;;;;;;4950685;29;20110;-74
2023/04/21 03:19:29;;;;;;;5.72;2.50;;;20.20;75.70;;;;;;4952274;29;20098;-76
2023/04/21 03:21:54;;;;;;;5.03;2.40;;;20.20;75.80;;;;;;4954971;29;20019;-77
2023/04/21 03:24:20;;;;;;;3.95;2.38;;;20.20;75.80;;;;;;4953705;29;20066;-77
2023/04/21 03:26:46;;;;;;;2.65;1.90;;;20.20;75.80;;;;;;4954669;29;20020;-76
2023/04/21 03:29:11;;;;;;;4.22;2.22;;;20.10;75.70;;;;;;4954569;28;20031;-75
2023/04/21 03:31:37;;;;;;;5.38;2.70;;;20.10;76.50;;;;;;4954547;29;20110;-75
2023/04/21 03:34:02;;;;;;;4.18;2.22;;;20.20;75.90;;;;;;4954811;29;20031;-76
2023/04/21 03:36:28;;;;;;;4.35;2.20;;;20.10;75.70;;;;;;4952299;29;20028;-75
2023/04/21 03:38:53;;;;;;;5.28;2.58;;;20.10;75.80;;;;;;4949827;29;20050;-75
2023/04/21 03:41:19;;;;;;;4.50;2.55;;;20.20;75.90;;;;;;4954666;29;20077;-76
2023/04/21 03:43:44;;;;;;;4.63;2.00;;;20.20;75.80;;;;;;4954290;28;20484;-75
2023/04/21 03:46:20;;;;;;;4.97;2.55;;;20.10;75.60;;;;;;4954448;29;20030;-76
2023/04/21 03:48:46;;;;;;;3.88;2.22;;;20.20;75.60;;;;;;4950949;28;20441;-77
2023/04/21 03:51:12;;;;;;;4.25;2.20;;;20.30;75.50;;;;;;4954484;29;20151;-75
2023/04/21 03:53:38;;;;;;;7.38;2.65;;;20.30;75.50;;;;;;4954515;29;20122;-76
2023/04/21 03:56:04;;;;;;;5.05;2.10;;;20.40;75.50;;;;;;4954178;29;20568;-76
2023/04/21 03:58:30;;;;;;;4.18;2.10;;;20.40;75.40;;;;;;4949370;28;20034;-77
2023/04/21 04:00:55;;;;;;;5.72;2.55;;;20.40;75.40;;;;;;4952866;29;20477;-74
2023/04/21 04:03:21;;;;;;;5.40;2.20;;;20.50;75.40;;;;;;4950544;29;20035;-75
2023/04/21 04:05:46;;;;;;;4.78;2.20;;;20.50;75.40;;;;;;4950814;28;20117;-76
2023/04/21 04:08:12;;;;;;;3.30;2.00;;;20.50;75.40;;;;;;4952238;28;20046;-77
2023/04/21 04:10:38;;;;;;;5.88;1.75;;;20.50;75.50;;;;;;4941210;29;20027;-77
2023/04/21 04:13:03;;;;;;;4.13;1.98;;;20.50;75.40;;;;;;4948107;29;20031;-77
2023/04/21 04:15:29;;;;;;;3.35;1.73;;;20.60;75.40;;;;;;4948755;28;20649;-76
2023/04/21 04:17:54;;;;;;;4.55;1.80;;;20.60;75.40;;;;;;4952145;28;20030;-76
2023/04/21 04:20:20;;;;;;;2.67;1.77;;;20.60;75.40;;;;;;4945084;29;20028;-76
2023/04/21 04:22:46;;;;;;;3.05;1.90;;;20.60;75.30;;;;;;4952901;29;20023;-75
2023/04/21 04:25:13;;;;;;;2.75;2.13;;;20.60;75.30;;;;;;4952441;29;20393;-76
2023/04/21 04:27:40;;;;;;;4.80;2.03;;;20.70;75.30;;;;;;4951172;28;20023;-75
2023/04/21 04:30:06;;;;;;;3.55;2.00;;;20.70;75.30;;;;;;4951577;28;20078;-76
2023/04/21 04:32:32;;;;;;;4.20;2.00;;;20.70;75.20;;;;;;4949533;28;20495;-75
2023/04/21 04:34:58;;;;;;;4.38;2.10;;;20.80;75.30;;;;;;4949951;29;20037;-76
2023/04/21 04:37:24;;;;;;;6.85;1.73;;;20.70;75.20;;;;;;4951039;29;20493;-77
2023/04/21 04:39:53;;;;;;;3.85;1.90;;;20.80;75.30;;;;;;4951532;28;20027;-77
2023/04/21 04:42:20;;;;;;;6.55;2.03;;;20.80;75.30;;;;;;4945502;29;20031;-77
2023/04/21 04:44:46;;;;;;;11.27;2.00;;;20.80;75.30;;;;;;4948765;29;20027;-75
2023/04/21 04:47:12;;;;;;;35.97;3.33;;;20.80;75.70;;;;;;4946506;29;20023;-79
2023/04/21 04:49:37;;;;;;;50.35;7.25;;;20.90;76.60;;;;;;4947752;29;20019;-75
2023/04/21 04:52:03;;;;;;;19.70;3.55;;;20.80;76.10;;;;;;4945498;29;20056;-79
2023/04/21 04:54:29;;;;;;;55.25;6.65;;;20.80;76.10;;;;;;4946381;29;20123;-75
2023/04/21 04:56:55;;;;;;;39.28;6.53;;;20.80;76.10;;;;;;4944229;29;20568;-76
2023/04/21 04:59:21;;;;;;;63.53;7.28;;;20.80;76.10;;;;;;4944738;28;20629;-75
2023/04/21 05:01:46;;;;;;;44.20;7.47;;;20.80;76.00;;;;;;4951630;29;20042;-76
2023/04/21 05:04:15;;;;;;;46.53;8.05;;;20.80;75.90;;;;;;4943327;29;20469;-75
2023/04/21 05:06:41;;;;;;;54.30;8.75;;;20.80;75.80;;;;;;4944557;29;20020;-74
2023/04/21 05:09:06;;;;;;;54.03;8.10;;;20.80;75.70;;;;;;4941744;28;20635;-76
2023/04/21 05:11:32;;;;;;;56.65;8.40;;;20.80;75.70;;;;;;4945816;29;20023;-75
2023/04/21 05:13:58;;;;;;;46.95;7.68;;;20.80;75.60;;;;;;4948482;29;20023;-75
2023/04/21 05:16:23;;;;;;;40.22;8.65;;;20.90;75.60;;;;;;4946603;29;20027;-75
2023/04/21 05:18:52;;;;;;;56.60;8.13;;;20.90;75.50;;;;;;4939601;29;20028;-74
2023/04/21 05:21:27;;;;;;;48.15;7.53;;;20.80;75.40;;;;;;4946973;29;20034;-75
2023/04/21 05:23:57;;;;;;;44.03;8.52;;;20.80;75.40;;;;;;4942633;29;20167;-75
2023/04/21 05:26:24;;;;;;;44.20;8.48;;;20.90;75.40;;;;;;4944377;28;20031;-75
2023/04/21 05:28:50;;;;;;;41.78;7.82;;;20.90;75.40;;;;;;4945532;28;20028;-75
2023/04/21 05:31:15;;;;;;;43.00;8.90;;;20.90;75.30;;;;;;4945533;29;20020;-74
2023/04/21 05:33:41;;;;;;;52.03;8.38;;;20.90;75.20;;;;;;4942083;29;20034;-74
2023/04/21 05:36:10;;;;;;;47.78;8.43;;;20.90;75.20;;;;;;4949129;29;20035;-75
2023/04/21 05:38:37;;;;;;;48.15;8.90;;;20.90;75.20;;;;;;4947306;28;20031;-74
2023/04/21 05:41:03;;;;;;;45.45;8.93;;;20.90;75.20;;;;;;4944276;28;20044;-74
2023/04/21 05:43:32;;;;;;;41.88;7.40;;;20.90;75.10;;;;;;4950937;29;20031;-74
2023/04/21 05:45:58;;;;;;;49.75;8.35;;;20.90;75.10;;;;;;4943207;29;20114;-75
2023/04/21 05:48:24;;;;;;;41.53;9.32;;;20.90;75.00;;;;;;4945630;28;20114;-75
2023/04/21 05:50:49;;;;;;;45.08;8.05;;;20.90;75.00;;;;;;4949862;28;20146;-74
2023/04/21 05:53:15;;;;;;;37.28;8.60;;;20.90;75.00;;;;;;4948596;29;20482;-74
2023/04/21 05:55:40;;;;;;;34.95;7.30;;;20.90;74.90;;;;;;4948950;29;20031;-75
2023/04/21 05:58:06;;;;;;;43.95;7.40;;;20.90;74.90;;;;;;4945978;28;20023;-75
2023/04/21 06:00:32;;;;;;;37.28;7.22;;;20.90;75.00;;;;;;4947844;29;20031;-74
2023/04/21 06:02:57;;;;;;;37.30;6.55;;;20.90;74.90;;;;;;4949203;29;20035;-75
2023/04/21 06:05:23;;;;;;;37.33;7.80;;;20.90;74.90;;;;;;4947965;29;20049;-75
2023/04/21 06:07:49;;;;;;;38.28;6.75;;;21.00;74.90;;;;;;4945272;28;20118;-75
2023/04/21 06:10:16;;;;;;;35.95;6.72;;;20.90;74.90;;;;;;4939156;29;20036;-75
2023/04/21 06:12:41;;;;;;;37.95;6.93;;;21.00;75.00;;;;;;4939479;29;20031;-75
2023/04/21 06:15:07;;;;;;;34.33;5.20;;;21.00;74.90;;;;;;4945070;29;20054;-76
2023/04/21 06:17:33;;;;;;;19.50;4.82;;;21.00;74.90;;;;;;4949196;29;20031;-75
2023/04/21 06:19:58;;;;;;;13.13;4.28;;;21.10;74.90;;;;;;4948046;28;20603;-76
2023/04/21 06:22:24;;;;;;;20.17;4.80;;;21.10;74.80;;;;;;4942791;29;20091;-76
2023/04/21 06:24:50;;;;;;;16.25;3.85;;;21.10;74.80;;;;;;4945939;29;20095;-75
2023/04/21 06:27:16;;;;;;;22.45;4.68;;;21.10;74.70;;;;;;4944147;29;20043;-76
2023/04/21 06:29:42;;;;;;;17.85;4.78;;;21.10;74.60;;;;;;4943287;28;20757;-75
2023/04/21 06:32:09;;;;;;;33.53;5.25;;;21.10;74.60;;;;;;4934180;29;20569;-80
2023/04/21 06:34:36;;;;;;;17.70;4.50;;;21.20;78.20;;;;;;4938573;28;20023;-85
2023/04/21 06:37:02;;;;;;;12.23;4.05;;;21.40;76.00;;;;;;4951084;28;20030;-80
2023/04/21 06:39:28;;;;;;;19.30;4.53;;;21.50;75.60;;;;;;4945181;28;20091;-84
2023/04/21 06:41:53;;;;;;;19.17;3.78;;;21.60;74.90;;;;;;4947426;29;20016;-82
2023/04/21 06:44:19;;;;;;;12.25;4.25;;;21.70;74.90;;;;;;4945506;29;20481;-81
2023/04/21 06:46:46;;;;;;;23.92;4.03;;;21.90;74.30;;;;;;4948161;29;20015;-83
2023/04/21 06:49:11;;;;;;;19.05;4.28;;;22.00;74.00;;;;;;4958295;28;20027;-77
2023/04/21 06:51:37;;;;;;;24.25;4.63;;;22.10;73.70;;;;;;4943929;29;20089;-77
2023/04/21 06:54:03;;;;;;;20.33;4.57;;;22.20;73.60;;;;;;4941280;29;20133;-77
2023/04/21 06:56:29;;;;;;;16.55;4.38;;;22.30;73.70;;;;;;4944667;29;20031;-77
2023/04/21 06:58:55;;;;;;;16.92;4.03;;;22.30;73.00;;;;;;4945093;28;20043;-77
2023/04/21 07:01:23;;;;;;;21.08;3.83;;;22.40;73.20;;;;;;4941264;29;20374;-74
2023/04/21 07:03:51;;;;;;;18.55;4.07;;;22.40;72.60;;;;;;4947313;29;20036;-75
2023/04/21 07:06:17;;;;;;;23.67;3.80;;;22.40;73.00;;;;;;4960765;28;20185;-79
2023/04/21 07:08:43;;;;;;;29.80;5.55;;;22.50;72.80;;;;;;4950432;28;20063;-81
2023/04/21 07:11:08;;;;;;;18.63;4.18;;;22.40;72.60;;;;;;4949236;29;20031;-79
2023/04/21 07:13:34;;;;;;;19.88;4.20;;;22.30;72.90;;;;;;4943830;29;20026;-79
2023/04/21 07:16:00;;;;;;;22.63;4.13;;;22.20;73.10;;;;;;4950637;29;20035;-82
2023/04/21 07:18:25;;;;;;;22.65;3.97;;;22.20;73.10;;;;;;4939752;29;20454;-78
2023/04/21 07:20:51;;;;;;;22.92;3.90;;;22.10;73.10;;;;;;4946339;29;20028;-80
2023/04/21 07:23:17;;;;;;;13.63;3.83;;;22.10;73.00;;;;;;4948084;28;20548;-79
2023/04/21 07:25:43;;;;;;;17.00;4.03;;;22.10;73.00;;;;;;4951249;29;20031;-80
2023/04/21 07:28:09;;;;;;;14.10;3.78;;;22.10;73.00;;;;;;4946253;29;20040;-80
2023/04/21 07:30:35;;;;;;;21.20;4.20;;;22.10;73.10;;;;;;4947883;29;20082;-80
2023/04/21 07:33:01;;;;;;;16.58;3.85;;;22.10;72.90;;;;;;4952606;28;20534;-82
2023/04/21 07:35:26;;;;;;;16.77;4.47;;;22.00;70.70;;;;;;4946231;29;20417;-82
2023/04/21 07:37:52;;;;;;;14.25;3.67;;;21.90;71.30;;;;;;4947598;29;20074;-81
2023/04/21 07:40:17;;;;;;;14.57;4.40;;;21.90;71.60;;;;;;4945109;29;20134;-81
2023/04/21 07:42:43;;;;;;;17.73;4.00;;;21.70;71.00;;;;;;4947274;28;20074;-79
2023/04/21 07:45:09;;;;;;;14.63;3.92;;;21.80;71.60;;;;;;4945959;29;20497;-79
2023/04/21 07:47:34;;;;;;;14.88;4.28;;;21.90;71.90;;;;;;4945725;28;20028;-77
2023/04/21 07:50:00;;;;;;;13.88;2.92;;;21.90;71.70;;;;;;4949602;28;20020;-80
2023/04/21 07:52:25;;;;;;;10.80;3.47;;;22.00;71.60;;;;;;4947160;29;20028;-80
2023/04/21 07:54:51;;;;;;;12.15;3.30;;;22.00;71.60;;;;;;4952714;29;20027;-78
2023/04/21 07:57:16;;;;;;;12.68;3.63;;;22.00;71.70;;;;;;4942735;29;20167;-77
2023/04/21 07:59:42;;;;;;;17.63;3.20;;;22.00;71.70;;;;;;4948786;28;20488;-80
2023/04/21 08:02:07;;;;;;;12.10;3.63;;;22.00;71.70;;;;;;4951892;29;20024;-79
2023/04/21 08:04:33;;;;;;;14.00;3.13;;;22.00;71.70;;;;;;4952268;29;20397;-79
2023/04/21 08:07:00;;;;;;;10.27;3.08;;;22.00;71.70;;;;;;4944805;29;20038;-79
2023/04/21 08:09:26;;;;;;;9.70;3.15;;;22.10;72.00;;;;;;4945830;29;20024;-78
2023/04/21 08:11:51;;;;;;;11.82;3.05;;;22.10;71.20;;;;;;4949867;28;20046;-79
2023/04/21 08:14:17;;;;;;;8.80;2.40;;;22.10;70.50;;;;;;4946507;29;20087;-81
2023/04/21 08:16:43;;;;;;;7.38;2.90;;;22.10;70.30;;;;;;4953047;29;20508;-87
2023/04/21 08:19:09;;;;;;;12.07;3.30;;;22.00;69.30;;;;;;4950000;28;20547;-84
2023/04/21 08:21:35;;;;;;;12.05;3.15;;;21.90;69.40;;;;;;4952852;29;20031;-84
2023/04/21 08:24:01;;;;;;;10.30;2.67;;;21.90;69.90;;;;;;4949722;29;20027;-85
2023/04/21 08:26:28;;;;;;;8.98;2.67;;;21.80;70.10;;;;;;4941746;29;20034;-84
2023/04/21 08:28:54;;;;;;;6.45;2.78;;;21.80;70.20;;;;;;4942738;29;20015;-84
2023/04/21 08:31:21;;;;;;;12.57;3.00;;;21.70;70.30;;;;;;4950957;29;20057;-86
2023/04/21 08:33:46;;;;;;;13.38;2.70;;;21.70;70.30;;;;;;4943782;29;20047;-86
2023/04/21 08:36:12;;;;;;;10.05;2.65;;;21.70;70.30;;;;;;4942612;29;20406;-88
2023/04/21 08:38:38;;;;;;;4.45;2.33;;;21.70;70.30;;;;;;4946537;28;20042;-88
2023/04/21 08:41:05;;;;;;;6.60;2.35;;;21.60;70.30;;;;;;4946849;29;20058;-85
2023/04/21 08:43:31;;;;;;;8.63;2.40;;;21.60;70.40;;;;;;4948687;29;20039;-84
2023/04/21 08:45:58;;;;;;;4.55;2.05;;;21.60;70.50;;;;;;4942985;29;20051;-84
2023/04/21 08:48:25;;;;;;;9.02;2.90;;;21.60;70.50;;;;;;4952200;28;20039;-84
2023/04/21 08:50:52;;;;;;;5.85;2.83;;;21.60;70.50;;;;;;4952713;29;20015;-85
2023/04/21 08:53:18;;;;;;;7.25;2.55;;;21.60;70.60;;;;;;4949030;28;20034;-82
2023/04/21 08:55:44;;;;;;;11.20;2.63;;;21.60;70.50;;;;;;4952289;29;20020;-80
2023/04/21 08:58:10;;;;;;;6.68;3.55;;;21.60;71.00;;;;;;4946255;28;20030;-79
2023/04/21 09:00:37;;;;;;;8.00;2.00;;;21.70;70.70;;;;;;4941615;28;20385;-79
2023/04/21 09:03:04;;;;;;;11.50;2.58;;;21.80;70.60;;;;;;4940903;28;20172;-79
2023/04/21 09:05:31;;;;;;;5.75;2.30;;;21.80;70.70;;;;;;4941459;28;20031;-80
2023/04/21 09:08:08;;;;;;;8.18;2.40;;;21.90;70.80;;;;;;4945373;29;20039;-79
2023/04/21 09:10:45;;;;;;;32.03;3.05;;;21.90;70.70;;;;;;4943374;29;20093;-78
2023/04/21 09:13:11;;;;;;;12.95;2.72;;;22.00;70.30;;;;;;4950708;29;20068;-82
2023/04/21 09:15:38;;;;;;;7.78;2.60;;;21.90;69.20;;;;;;4951551;29;20031;-82
2023/04/21 09:18:11;;;;;;;3.58;2.20;;;21.80;69.50;;;;;;4947112;29;20039;-80
2023/04/21 09:20:37;;;;;;;5.25;2.70;;;21.80;69.90;;;;;;4945058;29;20031;-83
2023/04/21 09:23:06;;;;;;;18.30;3.30;;;21.80;70.10;;;;;;4952108;29;20042;-79
2023/04/21 09:25:33;;;;;;;13.20;2.60;;;21.90;70.10;;;;;;4949504;28;20055;-81
2023/04/21 09:28:00;;;;;;;8.93;2.33;;;21.90;69.80;;;;;;4948539;28;20039;-79
2023/04/21 09:30:26;;;;;;;5.50;2.90;;;21.80;69.70;;;;;;4928841;28;20042;-80
2023/04/21 09:32:56;;;;;;;7.43;2.70;;;21.80;69.90;;;;;;4940956;28;20031;-79
2023/04/21 09:35:26;;;;;;;5.68;2.65;;;21.70;70.00;;;;;;4942847;28;20038;-80
2023/04/21 09:37:51;;;;;;;12.77;2.47;;;21.70;70.20;;;;;;4948073;29;20037;-81
2023/04/21 09:40:17;;;;;;;4.43;2.40;;;21.70;70.00;;;;;;4947432;29;20412;-80
2023/04/21 09:42:43;;;;;;;14.60;2.80;;;21.60;70.00;;;;;;4941346;29;20461;-80
2023/04/21 09:45:09;;;;;;;14.15;2.65;;;21.70;70.70;;;;;;4950754;29;20048;-81
2023/04/21 09:47:41;;;;;;;3.50;2.38;;;21.70;70.40;;;;;;4947276;28;20054;-81
2023/04/21 09:50:08;;;;;;;6.53;2.42;;;21.70;70.10;;;;;;4945668;29;20035;-80
2023/04/21 09:52:37;;;;;;;7.05;2.55;;;21.70;69.80;;;;;;4947186;29;20704;-77
2023/04/21 09:55:05;;;;;;;6.25;2.72;;;21.70;69.70;;;;;;4948884;29;20106;-79
2023/04/21 09:57:33;;;;;;;4.57;2.55;;;21.70;69.90;;;;;;4950247;29;20031;-79
2023/04/21 10:00:10;;;;;;;5.70;1.80;;;21.80;69.90;;;;;;4949324;28;20559;-79
2023/04/21 10:02:42;;;;;;;5.20;2.70;;;21.80;69.90;;;;;;4949787;29;20327;-79
2023/04/21 10:05:09;;;;;;;8.57;2.15;;;21.80;69.80;;;;;;4944823;29;20038;-80
2023/04/21 10:07:35;;;;;;;8.95;2.50;;;21.70;69.90;;;;;;4951541;29;20444;-79
2023/04/21 10:10:01;;;;;;;7.72;2.42;;;21.80;70.10;;;;;;4951185;28;20031;-79
2023/04/21 10:12:27;;;;;;;4.85;2.00;;;21.80;70.00;;;;;;4944519;29;20032;-78
2023/04/21 10:14:54;;;;;;;3.42;1.92;;;21.80;69.80;;;;;;4949292;29;20410;-79
2023/04/21 10:17:24;;;;;;;6.78;2.22;;;21.80;69.60;;;;;;4946518;29;20034;-79
2023/04/21 10:19:51;;;;;;;;;;;21.90;69.70;;;;;;4950952;28;20556;-79
2023/04/21 10:22:27;;;;;;;6.20;2.70;;;21.80;69.50;;;;;;4948226;28;19910;-80
2023/04/21 10:24:55;;;;;;;7.78;2.10;;;21.90;69.40;;;;;;4942539;29;20110;-78
2023/04/21 10:27:35;;;;;;;2.75;1.88;;;21.90;69.30;;;;;;4949228;29;20034;-78
2023/04/21 10:30:16;;;;;;;4.90;1.95;;;21.90;69.50;;;;;;4946198;28;20525;-78
2023/04/21 10:32:44;;;;;;;5.57;1.90;;;21.90;69.70;;;;;;4946270;28;20446;-78
2023/04/21 10:35:15;;;;;;;2.30;1.35;;;21.90;69.60;;;;;;4945861;29;20060;-79
2023/04/21 10:37:42;;;;;;;2.90;1.95;;;21.90;69.60;;;;;;4947688;29;20023;-79
2023/04/21 10:40:37;;;;;;;7.00;1.95;;;21.90;69.50;;;;;;4948637;29;20103;-78
2023/04/21 10:43:03;;;;;;;3.60;1.67;;;21.90;69.70;;;;;;4949087;28;20051;-79
2023/04/21 10:45:30;;;;;;;4.32;2.65;;;21.90;69.90;;;;;;4945932;29;20027;-79
2023/04/21 10:47:58;;;;;;;5.72;1.88;;;21.90;69.70;;;;;;4938843;29;20117;-79
2023/04/21 10:50:29;;;;;;;3.05;1.90;;;21.80;69.60;;;;;;4944260;29;20019;-79
2023/04/21 10:53:10;;;;;;;2.95;2.00;;;21.80;69.60;;;;;;4950407;29;20893;-80
2023/04/21 10:55:36;;;;;;;8.98;3.10;;;21.70;69.20;;;;;;4949184;29;20043;-80
2023/04/21 10:58:08;;;;;;;21.40;3.30;;;21.80;69.30;;;;;;4948982;28;20033;-80
2023/04/21 11:00:36;;;;;;;7.72;2.22;;;21.90;69.00;;;;;;4949524;29;20019;-82
2023/04/21 11:03:04;;;;;;;10.93;2.20;;;21.80;68.50;;;;;;4944631;29;20124;-84
2023/04/21 11:05:34;;;;;;;7.85;2.75;;;21.70;68.40;;;;;;4949217;28;20035;-84
2023/04/21 11:08:04;;;;;;;10.43;2.50;;;21.70;68.00;;;;;;4950873;28;20065;-84
2023/04/21 11:10:51;;;;;;;3.80;2.55;;;21.70;68.20;;;;;;4948774;28;20058;-84
2023/04/21 11:13:20;;;;;;;8.25;2.97;;;21.70;68.20;;;;;;4942819;29;20123;-81
2023/04/21 11:16:06;;;;;;;6.60;2.58;;;21.70;68.00;;;;;;4947487;29;20106;-81
2023/04/21 11:21:14;;;;;;;5.85;3.42;;;21.60;67.20;;;;;;5440981;23;20908;-84
2023/04/21 11:23:46;;;;;;;4.85;2.65;;;21.60;67.10;;;;;;5014007;28;20113;-83
2023/04/21 11:26:12;;;;;;;7.40;2.55;;;21.60;66.80;;;;;;5017539;28;20499;-81
2023/04/21 11:28:40;;;;;;;4.43;2.17;;;21.50;66.60;;;;;;5011065;28;20042;-83
2023/04/21 11:31:06;;;;;;;3.05;2.25;;;21.50;66.60;;;;;;5016421;28;20018;-84
2023/04/21 11:33:38;;;;;;;7.80;2.45;;;21.50;67.00;;;;;;5013346;28;20057;-83
2023/04/21 11:36:05;;;;;;;3.53;2.72;;;21.50;66.70;;;;;;5017121;28;20057;-80
2023/04/21 11:38:41;;;;;;;3.67;1.88;;;21.40;66.70;;;;;;5014230;28;20025;-81
2023/04/21 11:41:09;;;;;;;9.77;3.00;;;21.40;66.90;;;;;;5020056;28;20482;-81
2023/04/21 11:43:35;;;;;;;4.97;2.40;;;21.40;66.90;;;;;;5024582;28;20026;-80
2023/04/21 11:46:23;;;;;;;4.60;2.90;;;21.40;66.60;;;;;;5021801;28;20056;-80
2023/04/21 11:49:03;;;;;;;7.75;2.20;;;21.40;66.40;;;;;;5015961;28;20026;-80
2023/04/21 11:51:43;;;;;;;3.88;2.45;;;21.30;66.50;;;;;;5018709;28;20435;-81
2023/04/21 11:54:10;;;;;;;4.30;2.45;;;21.30;66.80;;;;;;5024248;28;20076;-82
2023/04/21 11:56:38;;;;;;;3.65;2.67;;;21.30;66.70;;;;;;5018661;28;20116;-82
2023/04/21 11:59:14;;;;;;;3.95;2.70;;;21.30;66.30;;;;;;5023775;28;20053;-82
2023/04/21 12:01:48;;;;;;;4.72;2.60;;;21.30;66.20;;;;;;5014424;28;20021;-81
2023/04/21 12:04:23;;;;;;;3.17;2.30;;;21.20;66.20;;;;;;5024899;28;20026;-82
2023/04/21 12:07:00;;;;;;;4.95;2.45;;;21.20;66.80;;;;;;5030852;28;20038;-82
2023/04/21 12:09:27;;;;;;;5.05;2.72;;;21.20;66.90;;;;;;5029863;28;20032;-82
2023/04/21 12:11:54;;;;;;;4.10;2.65;;;21.20;66.90;;;;;;5018753;28;20414;-83
2023/04/21 12:14:22;;;;;;;6.75;2.58;;;21.20;66.70;;;;;;5011635;28;20391;-83
2023/04/21 12:16:53;;;;;;;4.13;2.38;;;21.20;66.40;;;;;;5010404;28;20018;-83
2023/04/21 12:19:34;;;;;;;9.38;2.45;;;21.20;66.60;;;;;;5011009;28;20093;-82
2023/04/21 12:22:00;;;;;;;4.82;2.50;;;21.10;66.70;;;;;;5016339;28;20025;-83
2023/04/21 12:24:26;;;;;;;3.17;2.00;;;21.20;67.10;;;;;;5015041;28;20116;-83
2023/04/21 12:26:52;;;;;;;3.45;2.10;;;21.10;67.20;;;;;;5017076;28;20029;-83
2023/04/21 12:29:18;;;;;;;3.33;2.30;;;21.10;67.10;;;;;;5014876;28;20104;-84
2023/04/21 12:31:43;;;;;;;3.50;2.00;;;21.10;67.10;;;;;;5021662;28;20443;-83
2023/04/21 12:34:09;;;;;;;3.15;2.30;;;21.10;67.20;;;;;;5016149;28;20108;-83
2023/04/21 12:36:35;;;;;;;3.35;2.15;;;21.10;67.30;;;;;;5018971;28;20026;-83
2023/04/21 12:39:01;;;;;;;3.88;2.00;;;21.10;67.30;;;;;;5018941;28;20034;-83
2023/04/21 12:41:27;;;;;;;3.22;2.17;;;21.10;66.90;;;;;;5016713;28;20030;-83
2023/04/21 12:43:52;;;;;;;3.40;2.30;;;21.10;66.90;;;;;;5020696;28;20061;-81
2023/04/21 12:46:18;;;;;;;4.88;2.00;;;21.10;67.30;;;;;;5019264;28;20072;-83